Time;durP1;ratioP1;P1;durP2;ratioP2;P2;SDS_P1;SDS_P2;PMS_P1;PMS_P2;Temp;Humidity;BMP_temperature;BMP_pressure;BME280_temperature;BME280_humidity;BME280_pressure;Samples;Min_cycle;Max_cycle;Signal;HPM_P1;HPM_P2
2023/07/21 00:00:51;;;;;;;0.20;0.10;;;;;;;;;;5061139;28;20265;-79
2023/07/21 00:03:17;;;;;;;0.20;0.10;;;;;;;;;;5038372;28;20455;-79
2023/07/21 00:05:43;;;;;;;0.20;0.10;;;;;;;;;;5059813;28;20803;-79
2023/07/21 00:08:09;;;;;;;0.20;0.10;;;;;;;;;;5046322;28;20082;-79
2023/07/21 00:10:35;;;;;;;0.20;0.10;;;;;;;;;;5040036;28;20039;-79
2023/07/21 00:13:01;;;;;;;0.20;0.10;;;;;;;;;;5064320;28;20044;-78
2023/07/21 00:15:27;;;;;;;0.20;0.10;;;;;;;;;;5059886;28;20044;-78
2023/07/21 00:17:53;;;;;;;0.20;0.10;;;;;;;;;;5063450;28;20052;-78
2023/07/21 00:20:21;;;;;;;0.20;0.00;;;;;;;;;;5039011;28;20098;-78
2023/07/21 00:22:47;;;;;;;0.20;0.10;;;;;;;;;;5040604;28;20064;-79
2023/07/21 00:25:14;;;;;;;0.20;0.20;;;;;;;;;;5065378;28;20041;-78
2023/07/21 00:27:41;;;;;;;0.40;0.32;;;;;;;;;;5060726;28;20059;-78
2023/07/21 00:30:07;;;;;;;0.20;0.10;;;;;;;;;;5044283;28;20088;-78
2023/07/21 00:32:34;;;;;;;0.20;0.10;;;;;;;;;;5059354;28;20037;-78
2023/07/21 00:35:01;;;;;;;0.20;0.10;;;;;;;;;;5036567;28;20123;-78
2023/07/21 00:37:28;;;;;;;0.20;0.10;;;;;;;;;;5050130;28;20049;-78
2023/07/21 00:39:54;;;;;;;0.20;0.10;;;;;;;;;;5054379;28;20037;-78
2023/07/21 00:42:20;;;;;;;0.20;0.10;;;;;;;;;;5045547;28;20028;-78
2023/07/21 00:44:46;;;;;;;0.20;0.10;;;;;;;;;;5058635;28;20068;-78
2023/07/21 00:47:12;;;;;;;0.20;0.20;;;;;;;;;;5056136;28;20114;-78
2023/07/21 00:49:38;;;;;;;0.20;0.10;;;;;;;;;;5045564;28;20072;-78
2023/07/21 00:52:04;;;;;;;0.20;0.20;;;;;;;;;;5045620;28;20047;-78
2023/07/21 00:54:32;;;;;;;0.20;0.10;;;;;;;;;;5044345;28;20079;-78
2023/07/21 00:56:58;;;;;;;0.20;0.10;;;;;;;;;;5059105;28;20101;-78
2023/07/21 00:59:25;;;;;;;0.20;0.10;;;;;;;;;;5038909;28;20059;-77
2023/07/21 01:01:51;;;;;;;0.35;0.15;;;;;;;;;;5065302;28;20070;-78
2023/07/21 01:04:17;;;;;;;0.20;0.10;;;;;;;;;;5064094;28;20045;-78
2023/07/21 01:06:44;;;;;;;0.20;0.00;;;;;;;;;;5057281;28;20036;-78
2023/07/21 01:09:12;;;;;;;0.20;0.10;;;;;;;;;;5036773;28;20131;-78
2023/07/21 01:11:38;;;;;;;0.20;0.00;;;;;;;;;;5038695;28;20517;-78
2023/07/21 01:14:06;;;;;;;0.20;0.10;;;;;;;;;;5057592;28;20060;-78
2023/07/21 01:16:37;;;;;;;0.20;0.10;;;;;;;;;;5051034;28;20744;-78
2023/07/21 01:19:04;;;;;;;0.20;0.10;;;;;;;;;;5045105;28;20657;-78
2023/07/21 01:21:46;;;;;;;0.20;0.10;;;;;;;;;;5063116;28;20036;-78
2023/07/21 01:24:17;;;;;;;0.20;0.10;;;;;;;;;;5047776;28;20608;-78
2023/07/21 01:26:43;;;;;;;0.20;0.10;;;;;;;;;;5039967;28;20649;-78
2023/07/21 01:29:10;;;;;;;0.20;0.10;;;;;;;;;;5049803;28;20428;-78
2023/07/21 01:31:37;;;;;;;0.20;0.10;;;;;;;;;;5044263;28;20044;-78
2023/07/21 01:34:06;;;;;;;0.20;0.10;;;;;;;;;;5058323;28;20634;-78
2023/07/21 01:36:32;;;;;;;0.20;0.10;;;;;;;;;;5056749;28;20070;-78
2023/07/21 01:38:58;;;;;;;0.20;0.10;;;;;;;;;;5053404;28;20541;-78
2023/07/21 01:41:25;;;;;;;0.20;0.10;;;;;;;;;;5044561;28;20036;-78
2023/07/21 01:43:53;;;;;;;0.20;0.00;;;;;;;;;;5029183;28;20880;-78
2023/07/21 01:46:19;;;;;;;0.20;0.10;;;;;;;;;;5025171;28;20041;-78
2023/07/21 01:48:47;;;;;;;0.20;0.00;;;;;;;;;;5051353;28;20777;-78
2023/07/21 01:51:14;;;;;;;0.20;0.08;;;;;;;;;;5048835;28;20044;-78
2023/07/21 01:53:42;;;;;;;0.20;0.10;;;;;;;;;;5047923;28;20036;-78
2023/07/21 01:56:22;;;;;;;0.20;0.10;;;;;;;;;;5032651;28;20028;-78
2023/07/21 01:58:48;;;;;;;0.20;0.00;;;;;;;;;;5025784;28;20033;-78
2023/07/21 02:01:14;;;;;;;0.20;0.15;;;;;;;;;;5025670;28;20329;-78
2023/07/21 02:03:41;;;;;;;0.20;0.10;;;;;;;;;;5049045;28;20178;-78
2023/07/21 02:06:17;;;;;;;0.20;0.10;;;;;;;;;;5053879;28;20028;-78
2023/07/21 02:08:43;;;;;;;0.38;0.10;;;;;;;;;;5060508;28;20785;-78
2023/07/21 02:11:10;;;;;;;0.20;0.10;;;;;;;;;;5039751;28;20501;-78
2023/07/21 02:13:36;;;;;;;0.20;0.10;;;;;;;;;;5036231;28;20036;-78
2023/07/21 02:16:02;;;;;;;2.53;0.90;;;;;;;;;;5060378;28;20065;-78
2023/07/21 02:18:29;;;;;;;0.20;0.10;;;;;;;;;;5042734;28;20064;-78
2023/07/21 02:20:55;;;;;;;0.20;0.10;;;;;;;;;;5056560;28;20078;-77
2023/07/21 02:23:21;;;;;;;0.20;0.13;;;;;;;;;;5057240;28;20044;-78
2023/07/21 02:25:47;;;;;;;0.20;0.10;;;;;;;;;;5056286;28;20512;-78
2023/07/21 02:28:14;;;;;;;0.20;0.10;;;;;;;;;;5047216;28;20051;-78
2023/07/21 02:30:40;;;;;;;0.20;0.10;;;;;;;;;;5049241;28;20691;-78
2023/07/21 02:33:06;;;;;;;0.20;0.10;;;;;;;;;;5038729;28;20036;-78
2023/07/21 02:35:32;;;;;;;0.20;0.10;;;;;;;;;;5060294;28;20455;-78
2023/07/21 02:38:00;;;;;;;0.25;0.25;;;;;;;;;;5059026;28;20578;-78
2023/07/21 02:40:26;;;;;;;0.20;0.10;;;;;;;;;;5052002;28;20138;-78
2023/07/21 02:42:52;;;;;;;0.20;0.10;;;;;;;;;;5037593;28;20562;-78
2023/07/21 02:45:18;;;;;;;0.25;0.15;;;;;;;;;;5033958;28;20388;-78
2023/07/21 02:47:44;;;;;;;0.20;0.00;;;;;;;;;;5032017;28;20033;-78
2023/07/21 02:50:11;;;;;;;0.20;0.10;;;;;;;;;;5027693;28;20048;-78
2023/07/21 02:52:42;;;;;;;0.20;0.10;;;;;;;;;;5043388;28;20062;-77
2023/07/21 02:55:08;;;;;;;0.20;0.10;;;;;;;;;;5031157;28;20028;-78
2023/07/21 02:57:35;;;;;;;0.20;0.10;;;;;;;;;;5048370;28;20037;-78
2023/07/21 03:00:03;;;;;;;0.20;0.10;;;;;;;;;;5044581;28;20060;-78
2023/07/21 03:02:34;;;;;;;0.20;0.10;;;;;;;;;;5032461;28;20108;-78
2023/07/21 03:05:03;;;;;;;0.20;0.10;;;;;;;;;;5010719;28;21583;-78
2023/07/21 03:07:29;;;;;;;0.20;0.10;;;;;;;;;;5011959;28;20098;-78
2023/07/21 03:09:55;;;;;;;0.20;0.00;;;;;;;;;;5022859;28;20443;-77
2023/07/21 03:12:21;;;;;;;0.30;0.10;;;;;;;;;;5026363;28;20051;-78
2023/07/21 03:14:48;;;;;;;0.20;0.10;;;;;;;;;;5055932;28;20123;-77
2023/07/21 03:17:15;;;;;;;0.20;0.10;;;;;;;;;;5035780;28;20040;-78
2023/07/21 03:19:41;;;;;;;0.20;0.10;;;;;;;;;;5050282;28;20040;-78
2023/07/21 03:22:07;;;;;;;0.20;0.10;;;;;;;;;;5050498;28;20052;-78
2023/07/21 03:24:34;;;;;;;0.20;0.10;;;;;;;;;;5052419;28;20040;-78
2023/07/21 03:27:01;;;;;;;0.20;0.10;;;;;;;;;;5028618;28;20140;-78
2023/07/21 03:29:27;;;;;;;0.20;0.13;;;;;;;;;;5040718;28;20394;-78
2023/07/21 03:31:53;;;;;;;0.20;0.10;;;;;;;;;;5035017;28;20053;-78
2023/07/21 03:34:20;;;;;;;0.20;0.00;;;;;;;;;;5052165;28;20044;-78
2023/07/21 03:36:47;;;;;;;0.30;0.30;;;;;;;;;;5031698;28;20444;-78
2023/07/21 03:39:13;;;;;;;0.28;0.10;;;;;;;;;;5051690;28;20146;-78
2023/07/21 03:41:39;;;;;;;0.20;0.03;;;;;;;;;;5054126;28;20033;-78
2023/07/21 03:44:07;;;;;;;0.20;0.10;;;;;;;;;;5033212;28;20031;-78
2023/07/21 03:46:33;;;;;;;0.20;0.10;;;;;;;;;;5050397;28;20084;-78
2023/07/21 03:48:59;;;;;;;0.20;0.10;;;;;;;;;;5033943;28;20041;-78
2023/07/21 03:51:26;;;;;;;0.20;0.10;;;;;;;;;;5034991;28;20067;-78
2023/07/21 03:53:52;;;;;;;0.20;0.00;;;;;;;;;;5036054;28;20128;-78
2023/07/21 03:56:18;;;;;;;0.20;0.10;;;;;;;;;;5031568;28;20159;-77
2023/07/21 03:58:45;;;;;;;0.20;0.10;;;;;;;;;;5051213;28;20178;-78
2023/07/21 04:01:11;;;;;;;0.20;0.00;;;;;;;;;;5021528;28;20041;-78
2023/07/21 04:03:37;;;;;;;0.20;0.00;;;;;;;;;;5033445;28;20033;-78
2023/07/21 04:06:05;;;;;;;0.20;0.10;;;;;;;;;;5050603;28;20032;-78
2023/07/21 04:08:31;;;;;;;0.20;0.10;;;;;;;;;;5055828;28;20040;-78
2023/07/21 04:10:57;;;;;;;0.20;0.10;;;;;;;;;;5041091;28;20128;-78
2023/07/21 04:13:23;;;;;;;2.47;0.20;;;;;;;;;;5053687;28;20068;-78
2023/07/21 04:15:52;;;;;;;0.20;0.10;;;;;;;;;;5049157;28;20044;-78
2023/07/21 04:18:18;;;;;;;0.20;0.10;;;;;;;;;;5054841;28;20488;-78
2023/07/21 04:20:44;;;;;;;0.20;0.10;;;;;;;;;;5034532;28;20039;-78
2023/07/21 04:23:10;;;;;;;0.20;0.10;;;;;;;;;;5057977;28;20041;-77
2023/07/21 04:25:36;;;;;;;0.38;0.13;;;;;;;;;;5054322;28;20166;-78
2023/07/21 04:28:05;;;;;;;0.43;0.20;;;;;;;;;;5032797;28;20201;-78
2023/07/21 04:30:31;;;;;;;0.20;0.10;;;;;;;;;;5060969;28;20070;-79
2023/07/21 04:32:58;;;;;;;0.20;0.10;;;;;;;;;;5064501;28;20043;-79
2023/07/21 04:35:24;;;;;;;0.20;0.00;;;;;;;;;;5061415;28;21901;-79
2023/07/21 04:37:50;;;;;;;0.20;0.10;;;;;;;;;;5058973;28;20552;-79
2023/07/21 04:40:20;;;;;;;0.20;0.10;;;;;;;;;;5051697;28;20044;-78
2023/07/21 04:42:46;;;;;;;0.25;0.15;;;;;;;;;;5068778;28;20134;-78
2023/07/21 04:45:12;;;;;;;0.20;0.10;;;;;;;;;;5037575;28;22751;-77
2023/07/21 04:47:40;;;;;;;0.20;0.10;;;;;;;;;;5051433;28;20044;-78
2023/07/21 04:50:06;;;;;;;0.20;0.00;;;;;;;;;;5048329;28;20055;-78
2023/07/21 04:52:32;;;;;;;0.20;0.08;;;;;;;;;;5055392;28;20036;-78
2023/07/21 04:54:58;;;;;;;0.20;0.10;;;;;;;;;;5047587;28;20032;-78
2023/07/21 04:57:26;;;;;;;0.40;0.25;;;;;;;;;;5044187;28;20032;-78
2023/07/21 04:59:52;;;;;;;0.20;0.10;;;;;;;;;;5038019;28;20086;-78
2023/07/21 05:02:18;;;;;;;0.20;0.10;;;;;;;;;;5051134;28;20036;-78
2023/07/21 05:04:44;;;;;;;0.20;0.10;;;;;;;;;;5036070;28;20036;-78
2023/07/21 05:07:10;;;;;;;0.20;0.00;;;;;;;;;;5051210;28;20056;-78
2023/07/21 05:09:36;;;;;;;0.20;0.08;;;;;;;;;;5054081;28;20067;-78
2023/07/21 05:12:02;;;;;;;0.20;0.20;;;;;;;;;;5050862;28;20494;-79
2023/07/21 05:14:28;;;;;;;0.20;0.10;;;;;;;;;;5045197;28;20036;-78
2023/07/21 05:16:54;;;;;;;0.20;0.17;;;;;;;;;;5049735;28;20524;-78
2023/07/21 05:19:20;;;;;;;0.20;0.10;;;;;;;;;;5064276;22;20109;-84
2023/07/21 05:21:46;;;;;;;0.20;0.10;;;;;;;;;;5020356;28;20641;-85
2023/07/21 05:24:12;;;;;;;0.30;0.30;;;;;;;;;;5015716;28;20041;-84
2023/07/21 05:26:39;;;;;;;0.30;0.20;;;;;;;;;;5029717;28;20036;-84
2023/07/21 05:29:05;;;;;;;0.20;0.10;;;;;;;;;;5025391;28;20169;-85
2023/07/21 05:31:31;;;;;;;0.20;0.00;;;;;;;;;;5012950;28;20095;-85
2023/07/21 05:33:57;;;;;;;0.20;0.10;;;;;;;;;;4994986;28;20076;-84
2023/07/21 05:36:24;;;;;;;0.20;0.03;;;;;;;;;;4997546;28;20531;-85
2023/07/21 05:38:51;;;;;;;0.20;0.10;;;;;;;;;;4999594;28;20064;-84
2023/07/21 05:41:18;;;;;;;0.20;0.10;;;;;;;;;;4992975;28;20068;-84
2023/07/21 05:43:44;;;;;;;0.20;0.10;;;;;;;;;;5013640;28;20451;-84
2023/07/21 05:46:10;;;;;;;0.25;0.13;;;;;;;;;;5013266;28;20044;-84
2023/07/21 05:48:37;;;;;;;0.20;0.10;;;;;;;;;;5017700;28;20037;-84
2023/07/21 05:51:03;;;;;;;0.20;0.10;;;;;;;;;;5006105;28;20042;-84
2023/07/21 05:53:29;;;;;;;0.20;0.10;;;;;;;;;;4991508;28;20037;-85
2023/07/21 05:55:55;;;;;;;0.20;0.10;;;;;;;;;;4993858;28;20402;-85
2023/07/21 05:58:22;;;;;;;0.20;0.10;;;;;;;;;;4993773;28;20037;-84
2023/07/21 06:00:49;;;;;;;0.20;0.10;;;;;;;;;;4991641;28;21429;-83
2023/07/21 06:03:15;;;;;;;0.20;0.10;;;;;;;;;;4991154;28;20051;-84
2023/07/21 06:05:41;;;;;;;0.20;0.00;;;;;;;;;;4990768;28;20065;-84
2023/07/21 06:08:07;;;;;;;0.20;0.10;;;;;;;;;;5013461;28;20029;-86
2023/07/21 06:10:33;;;;;;;0.20;0.10;;;;;;;;;;5004033;28;20646;-84
2023/07/21 06:12:59;;;;;;;0.20;0.10;;;;;;;;;;5012148;28;20043;-84
2023/07/21 06:15:26;;;;;;;0.20;0.10;;;;;;;;;;5009585;28;20064;-84
2023/07/21 06:17:52;;;;;;;0.20;0.10;;;;;;;;;;5030483;28;20045;-84
2023/07/21 06:20:20;;;;;;;0.20;0.10;;;;;;;;;;5010335;28;20049;-84
2023/07/21 06:22:47;;;;;;;0.20;0.10;;;;;;;;;;4999683;28;20064;-84
2023/07/21 06:25:14;;;;;;;0.20;0.10;;;;;;;;;;5008465;28;20112;-84
2023/07/21 06:27:40;;;;;;;0.20;0.10;;;;;;;;;;4994687;28;20033;-85
2023/07/21 06:30:06;;;;;;;0.20;0.10;;;;;;;;;;4999927;28;20042;-83
2023/07/21 06:32:32;;;;;;;0.20;0.10;;;;;;;;;;4992068;28;20128;-85
2023/07/21 06:34:58;;;;;;;0.20;0.10;;;;;;;;;;5000526;28;20132;-85
2023/07/21 06:37:24;;;;;;;0.20;0.10;;;;;;;;;;4995602;28;20433;-85
2023/07/21 06:39:51;;;;;;;0.20;0.10;;;;;;;;;;4997877;28;20045;-83
2023/07/21 06:42:17;;;;;;;0.20;0.10;;;;;;;;;;4990610;28;20041;-85
2023/07/21 06:44:43;;;;;;;0.20;0.10;;;;;;;;;;5000336;28;21770;-86
2023/07/21 06:47:10;;;;;;;0.20;0.10;;;;;;;;;;4987849;28;20041;-85
2023/07/21 06:49:38;;;;;;;0.20;0.10;;;;;;;;;;4986342;28;20045;-84
2023/07/21 06:52:04;;;;;;;0.20;0.10;;;;;;;;;;4999732;28;20802;-86
2023/07/21 06:54:31;;;;;;;0.20;0.10;;;;;;;;;;4991124;28;20052;-83
2023/07/21 06:56:58;;;;;;;0.20;0.10;;;;;;;;;;4988307;28;20037;-83
2023/07/21 06:59:24;;;;;;;0.20;0.03;;;;;;;;;;5004095;28;20055;-85
2023/07/21 07:01:50;;;;;;;0.20;0.00;;;;;;;;;;4989916;28;20076;-84
2023/07/21 07:04:17;;;;;;;0.20;0.00;;;;;;;;;;4995306;28;20090;-83
2023/07/21 07:06:48;;;;;;;0.20;0.10;;;;;;;;;;4998010;28;20052;-83
2023/07/21 07:09:14;;;;;;;0.20;0.00;;;;;;;;;;4994362;28;20433;-85
2023/07/21 07:11:40;;;;;;;0.20;0.10;;;;;;;;;;4994196;28;20084;-84
2023/07/21 07:14:07;;;;;;;0.20;0.10;;;;;;;;;;5010826;28;20044;-85
2023/07/21 07:16:33;;;;;;;0.20;0.10;;;;;;;;;;5004228;28;20040;-84
2023/07/21 07:18:59;;;;;;;0.30;0.22;;;;;;;;;;5000146;28;20052;-85
2023/07/21 07:21:25;;;;;;;0.20;0.10;;;;;;;;;;4999120;28;20033;-84
2023/07/21 07:23:55;;;;;;;0.22;0.20;;;;;;;;;;5003253;28;20655;-86
2023/07/21 07:26:21;;;;;;;0.20;0.10;;;;;;;;;;4995436;28;20119;-84
2023/07/21 07:28:47;;;;;;;0.20;0.10;;;;;;;;;;4984786;28;20029;-84
2023/07/21 07:31:13;;;;;;;0.20;0.10;;;;;;;;;;5000089;28;20040;-83
2023/07/21 07:33:42;;;;;;;0.20;0.10;;;;;;;;;;4996777;28;20041;-84
2023/07/21 07:36:08;;;;;;;0.20;0.10;;;;;;;;;;4996976;28;20041;-85
2023/07/21 07:38:34;;;;;;;0.20;0.10;;;;;;;;;;5014773;28;20063;-85
2023/07/21 07:41:03;;;;;;;0.20;0.10;;;;;;;;;;4996648;28;20041;-83
2023/07/21 07:43:37;;;;;;;0.20;0.10;;;;;;;;;;5000190;28;20084;-87
2023/07/21 07:46:28;;;;;;;0.20;0.00;;;;;;;;;;5014385;28;20052;-84
2023/07/21 07:48:54;;;;;;;0.20;0.05;;;;;;;;;;5010267;28;20126;-85
2023/07/21 07:51:20;;;;;;;0.20;0.10;;;;;;;;;;5010991;28;20682;-86
2023/07/21 07:53:46;;;;;;;0.20;0.10;;;;;;;;;;4996719;28;21053;-84
2023/07/21 07:56:16;;;;;;;0.20;0.00;;;;;;;;;;4992748;28;20053;-84
2023/07/21 07:58:44;;;;;;;0.20;0.10;;;;;;;;;;4992020;28;20094;-83
2023/07/21 08:01:13;;;;;;;0.20;0.05;;;;;;;;;;5012507;28;20127;-82
2023/07/21 08:03:43;;;;;;;0.20;0.10;;;;;;;;;;5006245;28;20124;-87
2023/07/21 08:06:18;;;;;;;0.20;0.10;;;;;;;;;;5017050;28;20037;-85
2023/07/21 08:08:44;;;;;;;0.20;0.10;;;;;;;;;;5033236;22;20570;-88
2023/07/21 08:11:11;;;;;;;0.20;0.10;;;;;;;;;;5029228;28;20041;-83
2023/07/21 08:13:44;;;;;;;0.20;0.10;;;;;;;;;;5042493;28;20029;-86
2023/07/21 08:16:14;;;;;;;0.47;0.25;;;;;;;;;;5025789;28;20037;-86
2023/07/21 08:18:49;;;;;;;0.20;0.10;;;;;;;;;;5043910;28;20084;-84
2023/07/21 08:21:27;;;;;;;0.20;0.10;;;;;;;;;;5039902;28;20045;-86
2023/07/21 08:24:01;;;;;;;0.20;0.10;;;;;;;;;;5021393;28;20053;-84
2023/07/21 08:29:45;;;;;;;0.20;0.10;;;;;;;;;;5025943;28;20121;-88
2023/07/21 08:32:14;;;;;;;0.20;0.10;;;;;;;;;;5017500;28;20053;-84
2023/07/21 08:40:40;;;;;;;0.20;0.08;;;;;;;;;;5034461;22;20971;-84
2023/07/21 08:43:39;;;;;;;;;;;;;;;;;;;;;
2023/07/21 08:46:15;;;;;;;0.20;0.00;;;;;;;;;;5024974;28;20514;-83
2023/07/21 08:48:42;;;;;;;0.20;0.10;;;;;;;;;;4997438;28;20041;-86
2023/07/21 08:51:08;;;;;;;0.20;0.10;;;;;;;;;;5000797;28;20076;-85
2023/07/21 08:53:34;;;;;;;0.20;0.00;;;;;;;;;;5015453;28;20091;-85
2023/07/21 08:56:01;;;;;;;0.20;0.00;;;;;;;;;;4997870;28;20190;-84
2023/07/21 08:58:28;;;;;;;0.20;0.00;;;;;;;;;;5018806;28;20072;-84
2023/07/21 09:00:57;;;;;;;0.20;0.10;;;;;;;;;;5014279;28;20045;-87
2023/07/21 09:03:41;;;;;;;0.20;0.10;;;;;;;;;;5003839;28;20064;-86
2023/07/21 09:06:14;;;;;;;0.20;0.10;;;;;;;;;;5018600;28;20049;-85
2023/07/21 09:08:58;;;;;;;;;;;;;;;;;;;;;
2023/07/21 09:11:32;;;;;;;0.73;0.38;;;;;;;;;;5017350;28;20480;-83
2023/07/21 09:14:01;;;;;;;0.20;0.10;;;;;;;;;;5017375;28;22881;-85
2023/07/21 09:16:33;;;;;;;0.20;0.10;;;;;;;;;;5006401;28;20130;-84
2023/07/21 09:19:02;;;;;;;0.20;0.10;;;;;;;;;;5017977;28;20074;-84
2023/07/21 09:21:30;;;;;;;0.20;0.10;;;;;;;;;;5022163;28;20122;-84
2023/07/21 09:24:07;;;;;;;0.20;0.10;;;;;;;;;;5019600;28;20423;-84
2023/07/21 09:26:35;;;;;;;0.20;0.10;;;;;;;;;;5018305;28;20152;-84
2023/07/21 09:29:04;;;;;;;0.20;0.10;;;;;;;;;;5004998;28;20048;-85
2023/07/21 09:31:36;;;;;;;0.20;0.10;;;;;;;;;;5031479;28;20387;-84
2023/07/21 09:34:09;;;;;;;0.40;0.30;;;;;;;;;;4996493;28;20033;-84
2023/07/21 09:36:36;;;;;;;0.20;0.10;;;;;;;;;;5013237;28;20593;-83
2023/07/21 09:39:07;;;;;;;0.30;0.10;;;;;;;;;;5013962;28;20045;-84
2023/07/21 09:41:33;;;;;;;0.20;0.10;;;;;;;;;;5011433;28;20041;-85
2023/07/21 09:44:03;;;;;;;0.25;0.15;;;;;;;;;;5021272;28;20050;-83
2023/07/21 09:46:30;;;;;;;0.20;0.10;;;;;;;;;;5019704;28;20045;-81
2023/07/21 09:48:58;;;;;;;0.20;0.10;;;;;;;;;;5012113;28;20067;-87
2023/07/21 09:51:29;;;;;;;0.20;0.00;;;;;;;;;;4998525;28;20100;-86
2023/07/21 09:53:58;;;;;;;0.20;0.10;;;;;;;;;;5020270;28;20789;-82
2023/07/21 09:56:24;;;;;;;0.20;0.10;;;;;;;;;;5003668;28;20045;-82
2023/07/21 09:58:57;;;;;;;0.20;0.10;;;;;;;;;;5024255;28;20095;-82
2023/07/21 10:01:24;;;;;;;0.20;0.10;;;;;;;;;;5020059;28;20107;-84
2023/07/21 10:03:52;;;;;;;0.20;0.00;;;;;;;;;;5014002;28;20609;-82
2023/07/21 10:06:18;;;;;;;0.20;0.10;;;;;;;;;;5020749;28;20080;-82
2023/07/21 10:08:45;;;;;;;0.20;0.10;;;;;;;;;;5019946;28;20131;-84
2023/07/21 10:11:12;;;;;;;0.20;0.10;;;;;;;;;;5021604;28;20045;-80
2023/07/21 10:13:46;;;;;;;0.20;0.10;;;;;;;;;;5005751;28;20580;-83
2023/07/21 10:16:13;;;;;;;0.20;0.10;;;;;;;;;;5020401;28;20650;-82
2023/07/21 10:18:58;;;;;;;0.20;0.10;;;;;;;;;;5016758;28;20053;-79
2023/07/21 10:21:29;;;;;;;0.32;0.30;;;;;;;;;;5006580;28;20037;-85
2023/07/21 10:23:55;;;;;;;0.20;0.00;;;;;;;;;;5006063;28;20673;-84
2023/07/21 10:26:21;;;;;;;0.20;0.20;;;;;;;;;;4998693;28;20049;-83
2023/07/21 10:28:51;;;;;;;0.20;0.10;;;;;;;;;;5017401;28;21265;-84
2023/07/21 10:34:10;;;;;;;0.20;0.10;;;;;;;;;;5014459;28;20041;-84
2023/07/21 10:37:05;;;;;;;0.20;0.10;;;;;;;;;;4998086;28;20060;-85
2023/07/21 10:39:34;;;;;;;0.20;0.05;;;;;;;;;;4999049;28;20056;-82
2023/07/21 10:42:03;;;;;;;0.20;0.10;;;;;;;;;;5010996;28;20080;-81
2023/07/21 10:44:35;;;;;;;0.20;0.10;;;;;;;;;;4995615;28;20073;-82
2023/07/21 10:47:01;;;;;;;0.32;0.20;;;;;;;;;;5011722;28;20049;-81
2023/07/21 10:49:29;;;;;;;0.20;0.10;;;;;;;;;;5015999;28;20045;-85
2023/07/21 10:51:56;;;;;;;0.20;0.10;;;;;;;;;;5016703;28;20049;-83
2023/07/21 10:54:22;;;;;;;0.20;0.00;;;;;;;;;;5023287;28;20525;-81
2023/07/21 10:56:49;;;;;;;0.20;0.10;;;;;;;;;;5015484;28;20053;-80
2023/07/21 10:59:20;;;;;;;0.30;0.17;;;;;;;;;;5018748;28;20048;-83
2023/07/21 11:01:47;;;;;;;0.20;0.10;;;;;;;;;;5001938;28;20057;-83
2023/07/21 11:04:14;;;;;;;0.20;0.20;;;;;;;;;;4998739;28;20682;-82
2023/07/21 11:06:42;;;;;;;0.20;0.10;;;;;;;;;;5018291;28;20045;-83
2023/07/21 11:09:14;;;;;;;0.20;0.10;;;;;;;;;;5035879;28;20042;-83
2023/07/21 11:11:40;;;;;;;;;;;;;;;;;;5019511;28;20465;-84
2023/07/21 11:14:13;;;;;;;0.20;0.10;;;;;;;;;;5015386;28;19925;-83
2023/07/21 11:16:43;;;;;;;0.20;0.10;;;;;;;;;;5015952;28;20116;-82
2023/07/21 11:19:09;;;;;;;0.20;0.10;;;;;;;;;;5015915;22;20026;-82
2023/07/21 11:21:39;;;;;;;0.30;0.28;;;;;;;;;;5024367;28;20120;-85
2023/07/21 11:24:08;;;;;;;0.30;0.30;;;;;;;;;;5033003;28;20045;-80
2023/07/21 11:26:35;;;;;;;0.20;0.10;;;;;;;;;;5030021;28;20040;-82
2023/07/21 11:29:15;;;;;;;0.20;0.10;;;;;;;;;;5054286;28;20047;-85
2023/07/21 11:31:47;;;;;;;0.20;0.10;;;;;;;;;;5027635;28;20630;-85
2023/07/21 11:34:23;;;;;;;0.20;0.10;;;;;;;;;;5030725;28;20463;-84
2023/07/21 11:37:09;;;;;;;0.20;0.00;;;;;;;;;;5033816;28;20291;-85
2023/07/21 11:39:36;;;;;;;0.20;0.10;;;;;;;;;;5028449;28;20502;-83
2023/07/21 11:42:05;;;;;;;0.20;0.10;;;;;;;;;;5045183;28;20501;-83
2023/07/21 11:44:32;;;;;;;0.25;0.10;;;;;;;;;;5051413;28;20033;-81
2023/07/21 11:47:05;;;;;;;0.20;0.10;;;;;;;;;;5065510;28;20285;-82
2023/07/21 11:49:33;;;;;;;0.20;0.10;;;;;;;;;;5054831;28;20064;-82
2023/07/21 11:52:02;;;;;;;0.20;0.10;;;;;;;;;;5055197;28;20493;-83
2023/07/21 11:54:36;;;;;;;0.57;0.57;;;;;;;;;;5057778;28;20032;-82
2023/07/21 11:57:02;;;;;;;0.20;0.10;;;;;;;;;;5037412;28;20041;-80
2023/07/21 11:59:28;;;;;;;0.20;0.20;;;;;;;;;;5057285;28;20443;-80
2023/07/21 12:01:55;;;;;;;0.20;0.10;;;;;;;;;;5031601;28;20084;-81
2023/07/21 12:04:22;;;;;;;0.20;0.10;;;;;;;;;;5054399;28;20412;-80
2023/07/21 12:06:49;;;;;;;0.32;0.32;;;;;;;;;;5048087;28;20221;-80
2023/07/21 12:09:16;;;;;;;0.20;0.10;;;;;;;;;;5052253;28;20053;-79
2023/07/21 12:11:42;;;;;;;0.20;0.00;;;;;;;;;;5040831;28;20044;-80
2023/07/21 12:14:11;;;;;;;0.20;0.10;;;;;;;;;;5041602;28;20039;-81
2023/07/21 12:16:37;;;;;;;0.25;0.10;;;;;;;;;;5052987;28;20122;-81
2023/07/21 12:19:04;;;;;;;0.20;0.10;;;;;;;;;;5056915;28;20041;-82
2023/07/21 12:21:31;;;;;;;0.20;0.10;;;;;;;;;;5050745;28;20044;-82
2023/07/21 12:23:58;;;;;;;0.20;0.10;;;;;;;;;;5053311;28;20396;-80
2023/07/21 12:26:24;;;;;;;0.20;0.10;;;;;;;;;;5041321;28;20172;-82
2023/07/21 12:28:50;;;;;;;0.20;0.10;;;;;;;;;;5055526;28;20594;-83
2023/07/21 12:31:17;;;;;;;0.38;0.22;;;;;;;;;;5039966;28;20574;-82
2023/07/21 12:33:44;;;;;;;0.20;0.10;;;;;;;;;;5035746;28;20041;-81
2023/07/21 12:36:11;;;;;;;0.20;0.08;;;;;;;;;;5036466;28;20048;-86
2023/07/21 12:38:37;;;;;;;0.20;0.10;;;;;;;;;;5050725;28;20048;-83
2023/07/21 12:41:03;;;;;;;0.20;0.10;;;;;;;;;;5049675;28;20040;-82
2023/07/21 12:43:29;;;;;;;0.20;0.10;;;;;;;;;;5032014;28;20040;-83
2023/07/21 12:45:55;;;;;;;0.20;0.10;;;;;;;;;;5045536;28;20089;-84
2023/07/21 12:48:22;;;;;;;0.20;0.10;;;;;;;;;;5032677;28;20059;-83
2023/07/21 12:50:48;;;;;;;0.20;0.13;;;;;;;;;;5032794;28;20104;-80
2023/07/21 12:53:14;;;;;;;0.20;0.10;;;;;;;;;;5029544;28;20361;-84
2023/07/21 12:55:43;;;;;;;0.20;0.10;;;;;;;;;;5049716;28;20067;-83
2023/07/21 12:58:09;;;;;;;0.22;0.20;;;;;;;;;;5059664;28;20076;-83
2023/07/21 13:00:35;;;;;;;0.20;0.10;;;;;;;;;;5051770;28;20055;-84
2023/07/21 13:03:01;;;;;;;0.32;0.30;;;;;;;;;;5053625;28;20384;-83
2023/07/21 13:05:27;;;;;;;0.20;0.10;;;;;;;;;;5051335;28;20060;-83
2023/07/21 13:07:53;;;;;;;0.20;0.10;;;;;;;;;;5033159;28;20068;-82
2023/07/21 13:10:19;;;;;;;0.20;0.10;;;;;;;;;;5044799;28;20636;-83
2023/07/21 13:12:46;;;;;;;0.20;0.10;;;;;;;;;;5029487;28;20044;-84
2023/07/21 13:15:12;;;;;;;0.20;0.10;;;;;;;;;;5049570;28;20044;-82
2023/07/21 13:17:38;;;;;;;0.32;0.20;;;;;;;;;;5033186;28;20243;-83
2023/07/21 13:20:04;;;;;;;0.20;0.00;;;;;;;;;;5035175;28;20044;-84
2023/07/21 13:22:30;;;;;;;0.25;0.20;;;;;;;;;;5037692;28;20071;-82
2023/07/21 13:24:56;;;;;;;0.20;0.10;;;;;;;;;;5042776;28;20199;-79
2023/07/21 13:27:22;;;;;;;0.20;0.10;;;;;;;;;;5041585;28;20037;-82
2023/07/21 13:29:48;;;;;;;0.20;0.10;;;;;;;;;;5050621;28;20052;-81
2023/07/21 13:32:15;;;;;;;0.20;0.10;;;;;;;;;;5045606;28;20048;-79
2023/07/21 13:34:41;;;;;;;0.20;0.10;;;;;;;;;;5032754;28;20036;-78
2023/07/21 13:37:07;;;;;;;0.20;0.10;;;;;;;;;;5034333;28;20071;-77
2023/07/21 13:39:33;;;;;;;0.20;0.10;;;;;;;;;;5053051;28;20037;-84
2023/07/21 13:42:01;;;;;;;0.20;0.10;;;;;;;;;;5036721;28;20040;-83
2023/07/21 13:44:31;;;;;;;0.20;0.10;;;;;;;;;;5054005;28;20067;-82
2023/07/21 13:47:00;;;;;;;;;;;;;;;;;;5038364;28;20044;-82
2023/07/21 13:49:26;;;;;;;0.20;0.10;;;;;;;;;;5042677;28;19958;-80
2023/07/21 13:51:52;;;;;;;0.20;0.10;;;;;;;;;;5043553;28;20134;-82
2023/07/21 13:54:18;;;;;;;0.20;0.10;;;;;;;;;;5057174;28;20037;-81
2023/07/21 13:56:44;;;;;;;0.30;0.20;;;;;;;;;;5053874;28;20063;-81
2023/07/21 13:59:10;;;;;;;0.20;0.10;;;;;;;;;;5056233;28;21870;-81
2023/07/21 14:01:36;;;;;;;0.20;0.10;;;;;;;;;;5058713;28;20064;-80
2023/07/21 14:04:02;;;;;;;0.20;0.10;;;;;;;;;;5062759;28;20062;-81
2023/07/21 14:06:28;;;;;;;0.43;0.17;;;;;;;;;;5061394;28;20484;-81
2023/07/21 14:08:54;;;;;;;0.20;0.10;;;;;;;;;;5062114;28;20037;-81
2023/07/21 14:11:20;;;;;;;0.20;0.10;;;;;;;;;;5064313;28;20029;-82
2023/07/21 14:13:47;;;;;;;0.40;0.30;;;;;;;;;;5057215;28;20097;-79
2023/07/21 14:16:13;;;;;;;0.30;0.20;;;;;;;;;;5042403;28;20072;-82
2023/07/21 14:18:39;;;;;;;0.20;0.10;;;;;;;;;;5054363;28;20067;-80
2023/07/21 14:21:05;;;;;;;0.20;0.08;;;;;;;;;;5061178;28;20053;-83
2023/07/21 14:23:45;;;;;;;0.20;0.10;;;;;;;;;;5041198;28;20086;-83
2023/07/21 14:26:11;;;;;;;0.20;0.10;;;;;;;;;;5035417;28;20049;-82
2023/07/21 14:28:37;;;;;;;0.20;0.00;;;;;;;;;;5056607;28;20086;-81
2023/07/21 14:31:06;;;;;;;0.20;0.10;;;;;;;;;;5045529;28;20075;-81
2023/07/21 14:33:33;;;;;;;0.20;0.10;;;;;;;;;;5057328;28;20044;-82
2023/07/21 14:35:59;;;;;;;0.45;0.35;;;;;;;;;;5031930;28;20584;-81
2023/07/21 14:38:25;;;;;;;0.20;0.17;;;;;;;;;;5058568;28;20052;-80
2023/07/21 14:40:51;;;;;;;0.20;0.00;;;;;;;;;;5062686;28;20040;-80
2023/07/21 14:43:18;;;;;;;0.20;0.10;;;;;;;;;;5045445;28;20044;-81
2023/07/21 14:45:45;;;;;;;0.20;0.10;;;;;;;;;;5056525;28;20119;-81
2023/07/21 14:48:11;;;;;;;0.20;0.10;;;;;;;;;;5038038;28;20068;-81
2023/07/21 14:50:38;;;;;;;0.20;0.10;;;;;;;;;;5039513;28;20044;-81
2023/07/21 14:53:04;;;;;;;0.20;0.10;;;;;;;;;;5068220;28;20044;-81
2023/07/21 14:55:30;;;;;;;0.20;0.10;;;;;;;;;;5052447;28;20043;-82
2023/07/21 14:57:56;;;;;;;0.20;0.10;;;;;;;;;;5069844;28;20188;-83
2023/07/21 15:00:25;;;;;;;0.20;0.10;;;;;;;;;;5063310;28;20041;-81